Time;durP1;ratioP1;P1;durP2;ratioP2;P2;SDS_P1;SDS_P2;PMS_P1;PMS_P2;Temp;Humidity;BMP_temperature;BMP_pressure;BME280_temperature;BME280_humidity;BME280_pressure;Samples;Min_cycle;Max_cycle;Signal;HPM_P1;HPM_P2
2021/09/16 00:01:24;;;;;;;2.73;1.60;;;17.30;99.90;;;;;;6204801;23;20417;-84
2021/09/16 00:03:53;;;;;;;2.20;1.75;;;17.20;99.90;;;;;;6204464;23;20446;-84
2021/09/16 00:06:22;;;;;;;7.45;2.08;;;17.00;99.90;;;;;;6205179;23;20226;-81
2021/09/16 00:08:53;;;;;;;3.33;1.25;;;17.20;99.90;;;;;;6164780;23;20241;-73
2021/09/16 00:11:40;;;;;;;1.98;1.30;;;17.10;99.90;;;;;;6166333;23;20212;-72
2021/09/16 00:14:07;;;;;;;2.50;1.47;;;17.10;99.90;;;;;;6162225;23;20169;-75
2021/09/16 00:16:34;;;;;;;4.13;1.30;;;17.10;99.90;;;;;;6157515;23;20395;-77
2021/09/16 00:19:01;;;;;;;2.93;1.33;;;17.10;99.90;;;;;;6157753;23;20165;-74
2021/09/16 00:21:30;;;;;;;3.58;1.20;;;17.10;99.90;;;;;;6159201;23;20527;-75
2021/09/16 00:23:57;;;;;;;2.65;1.25;;;17.10;99.90;;;;;;6157827;23;20185;-73
2021/09/16 00:26:24;;;;;;;3.85;1.65;;;17.10;99.90;;;;;;6156453;23;20483;-75
2021/09/16 00:28:51;;;;;;;5.43;1.53;;;17.00;99.90;;;;;;6156957;23;20496;-73
2021/09/16 00:31:19;;;;;;;2.00;1.08;;;17.00;99.90;;;;;;6157357;23;20447;-73
2021/09/16 00:33:46;;;;;;;3.00;1.25;;;17.00;99.90;;;;;;6156926;23;20164;-76
2021/09/16 00:36:13;;;;;;;2.70;0.93;;;17.00;99.90;;;;;;6156981;23;20186;-75
2021/09/16 00:38:42;;;;;;;3.13;1.40;;;17.00;99.90;;;;;;6157017;23;20171;-73
2021/09/16 00:41:09;;;;;;;1.17;1.08;;;16.90;99.90;;;;;;6157729;23;20172;-73
2021/09/16 00:43:37;;;;;;;2.67;1.00;;;16.90;99.90;;;;;;6158077;23;20163;-75
2021/09/16 00:46:06;;;;;;;3.67;1.05;;;16.90;99.90;;;;;;6157681;23;20163;-75
2021/09/16 00:48:34;;;;;;;4.07;1.13;;;16.80;99.90;;;;;;6157154;23;20164;-74
2021/09/16 00:51:01;;;;;;;4.60;1.23;;;16.90;99.90;;;;;;6156652;23;20402;-73
2021/09/16 00:53:29;;;;;;;5.75;1.20;;;16.80;99.90;;;;;;6157138;23;20863;-74
2021/09/16 00:55:59;;;;;;;1.42;0.80;;;16.80;99.90;;;;;;6156348;23;20670;-76
2021/09/16 00:58:29;;;;;;;5.88;1.13;;;16.80;99.90;;;;;;6157078;23;20174;-73
2021/09/16 01:00:56;;;;;;;2.60;1.20;;;16.70;99.90;;;;;;6157302;23;20165;-72
2021/09/16 01:03:24;;;;;;;3.13;1.15;;;16.70;99.90;;;;;;6157462;23;20168;-76
2021/09/16 01:05:52;;;;;;;3.95;1.02;;;16.70;99.90;;;;;;6155979;23;20188;-74
2021/09/16 01:08:19;;;;;;;3.63;1.17;;;16.70;99.90;;;;;;6157306;23;20187;-72
2021/09/16 01:10:46;;;;;;;1.50;0.70;;;16.70;99.90;;;;;;6154811;23;20163;-73
2021/09/16 01:13:15;;;;;;;4.63;1.40;;;16.70;99.90;;;;;;6156643;23;20589;-73
2021/09/16 01:15:43;;;;;;;6.03;1.15;;;16.70;99.90;;;;;;6156601;23;20198;-74
2021/09/16 01:18:10;;;;;;;3.72;1.33;;;16.70;99.90;;;;;;6157101;23;20167;-74
2021/09/16 01:20:37;;;;;;;1.67;1.00;;;16.70;99.90;;;;;;6157328;23;20452;-75
2021/09/16 01:23:06;;;;;;;3.45;1.35;;;16.80;99.90;;;;;;6156576;23;20450;-75
2021/09/16 01:25:35;;;;;;;5.78;1.10;;;16.80;99.90;;;;;;6155897;23;20545;-72
2021/09/16 01:28:03;;;;;;;2.08;0.90;;;16.80;99.90;;;;;;6156640;23;20164;-75
2021/09/16 01:30:31;;;;;;;4.53;1.73;;;16.70;99.90;;;;;;6157319;23;20171;-72
2021/09/16 01:32:59;;;;;;;2.15;1.05;;;16.70;99.90;;;;;;6156845;23;20255;-74
2021/09/16 01:35:27;;;;;;;2.42;0.90;;;16.60;99.90;;;;;;6155446;23;20167;-76
2021/09/16 01:37:54;;;;;;;4.20;0.90;;;16.50;99.90;;;;;;6156664;23;20168;-79
2021/09/16 01:40:24;;;;;;;6.00;1.73;;;16.40;99.90;;;;;;6156417;23;20170;-74
2021/09/16 01:42:52;;;;;;;3.78;1.33;;;16.20;99.90;;;;;;6157056;23;20227;-75
2021/09/16 01:45:21;;;;;;;3.75;1.00;;;16.20;99.90;;;;;;6156132;23;20198;-76
2021/09/16 01:47:49;;;;;;;1.63;1.05;;;16.20;99.90;;;;;;6157441;23;20485;-75
2021/09/16 01:50:21;;;;;;;2.80;1.25;;;16.10;99.90;;;;;;6156748;23;20172;-75
2021/09/16 01:52:49;;;;;;;3.03;0.95;;;16.00;99.90;;;;;;6156287;23;20223;-75
2021/09/16 01:55:23;;;;;;;6.45;1.40;;;16.00;99.90;;;;;;6156518;23;20162;-73
2021/09/16 01:57:51;;;;;;;3.08;0.98;;;15.90;99.90;;;;;;6156869;23;20185;-74
2021/09/16 02:00:19;;;;;;;2.95;1.15;;;15.80;99.90;;;;;;6157154;23;20248;-76
2021/09/16 02:02:46;;;;;;;1.58;0.90;;;15.80;99.90;;;;;;6156449;23;20198;-73
2021/09/16 02:05:15;;;;;;;4.40;1.13;;;15.70;99.90;;;;;;6156687;23;20192;-73
2021/09/16 02:07:42;;;;;;;4.82;1.65;;;15.70;99.90;;;;;;6156613;23;20244;-74
2021/09/16 02:10:10;;;;;;;6.75;2.15;;;15.60;99.90;;;;;;6156925;23;20161;-74
2021/09/16 02:12:49;;;;;;;3.63;1.83;;;15.60;99.90;;;;;;6157824;23;20219;-71
2021/09/16 02:15:17;;;;;;;6.55;1.40;;;15.60;99.90;;;;;;6158011;23;20183;-75
2021/09/16 02:17:45;;;;;;;1.83;0.90;;;15.50;99.90;;;;;;6158863;23;20177;-75
2021/09/16 02:20:13;;;;;;;6.30;1.60;;;15.50;99.90;;;;;;6160391;23;20164;-73
2021/09/16 02:22:40;;;;;;;4.72;1.17;;;15.40;99.90;;;;;;6161253;23;20236;-72
2021/09/16 02:25:08;;;;;;;6.38;1.30;;;15.40;99.90;;;;;;6160885;23;20185;-73
2021/09/16 02:27:35;;;;;;;3.95;1.20;;;15.40;99.90;;;;;;6162516;23;20177;-72
2021/09/16 02:30:04;;;;;;;7.45;1.65;;;15.40;99.90;;;;;;6163319;23;20240;-72
2021/09/16 02:32:32;;;;;;;2.70;0.70;;;15.40;99.90;;;;;;6164627;23;20197;-73
2021/09/16 02:34:59;;;;;;;2.45;1.30;;;15.40;99.90;;;;;;6163719;23;20236;-74
2021/09/16 02:37:26;;;;;;;5.43;1.13;;;15.30;99.90;;;;;;6164552;23;20188;-73
2021/09/16 02:39:55;;;;;;;1.73;1.20;;;15.30;99.90;;;;;;6166426;23;20218;-72
2021/09/16 02:42:23;;;;;;;1.67;1.35;;;15.20;99.90;;;;;;6170480;23;20648;-71
2021/09/16 02:44:50;;;;;;;5.85;1.20;;;15.20;99.90;;;;;;6170433;23;20193;-71
2021/09/16 02:47:19;;;;;;;4.47;1.90;;;15.10;99.90;;;;;;6167888;23;20188;-70
2021/09/16 02:49:47;;;;;;;4.75;1.92;;;15.10;99.90;;;;;;6161368;23;20196;-74
2021/09/16 02:52:14;;;;;;;6.00;1.75;;;15.10;99.90;;;;;;6158893;23;20196;-72
2021/09/16 02:54:41;;;;;;;3.53;1.60;;;15.00;99.90;;;;;;6158120;23;20189;-73
2021/09/16 02:57:09;;;;;;;2.92;1.10;;;15.00;99.90;;;;;;6156081;23;20232;-74
2021/09/16 02:59:38;;;;;;;3.92;1.63;;;15.00;99.90;;;;;;6156891;23;20263;-72
2021/09/16 03:02:05;;;;;;;2.83;1.45;;;14.90;99.90;;;;;;6156370;23;20193;-74
2021/09/16 03:04:40;;;;;;;4.20;1.27;;;14.90;99.90;;;;;;6155969;23;20165;-73
2021/09/16 03:07:07;;;;;;;4.50;1.80;;;14.90;99.90;;;;;;6155994;23;20164;-76
2021/09/16 03:09:34;;;;;;;3.38;1.90;;;14.80;99.90;;;;;;6156871;23;20185;-72
2021/09/16 03:12:03;;;;;;;5.00;1.30;;;14.80;99.90;;;;;;6156026;23;20203;-73
2021/09/16 03:14:30;;;;;;;8.32;2.40;;;14.80;99.90;;;;;;6156637;23;20495;-73
2021/09/16 03:16:58;;;;;;;2.30;1.50;;;14.80;99.90;;;;;;6155341;23;20154;-71
2021/09/16 03:19:25;;;;;;;2.38;1.60;;;14.70;99.90;;;;;;6156411;23;20165;-73
2021/09/16 03:21:54;;;;;;;6.43;1.70;;;14.70;99.90;;;;;;6156187;23;20223;-71
2021/09/16 03:24:21;;;;;;;5.35;1.63;;;14.70;99.90;;;;;;6155879;23;20162;-74
2021/09/16 03:26:48;;;;;;;4.28;1.75;;;14.70;99.90;;;;;;6155061;23;20182;-74
2021/09/16 03:29:15;;;;;;;3.60;2.08;;;14.70;99.90;;;;;;6156857;23;20562;-75
2021/09/16 03:31:42;;;;;;;2.25;1.70;;;14.60;99.90;;;;;;6155719;23;20197;-73
2021/09/16 03:34:09;;;;;;;2.88;1.60;;;14.60;99.90;;;;;;6156428;23;20183;-72
2021/09/16 03:36:37;;;;;;;5.80;1.50;;;14.60;99.90;;;;;;6155909;23;20157;-75
2021/09/16 03:39:05;;;;;;;3.85;1.95;;;14.70;99.90;;;;;;6156755;23;20188;-74
2021/09/16 03:41:32;;;;;;;2.92;1.63;;;14.70;99.90;;;;;;6157372;23;20200;-75
2021/09/16 03:44:00;;;;;;;4.25;2.05;;;14.80;99.90;;;;;;6156309;23;20174;-73
2021/09/16 03:46:28;;;;;;;3.35;1.50;;;14.80;99.90;;;;;;6155609;23;20207;-73
2021/09/16 03:48:55;;;;;;;6.20;1.45;;;14.80;99.90;;;;;;6156355;23;20172;-75
2021/09/16 03:51:22;;;;;;;7.22;2.03;;;14.80;99.90;;;;;;6158360;23;20204;-75
2021/09/16 03:53:49;;;;;;;5.60;3.20;;;14.80;99.90;;;;;;6157831;23;20479;-72
2021/09/16 03:56:20;;;;;;;4.35;2.00;;;14.80;99.90;;;;;;6157445;23;20173;-75
2021/09/16 03:58:47;;;;;;;5.65;1.90;;;14.70;99.90;;;;;;6158183;23;20168;-72
2021/09/16 04:01:15;;;;;;;8.13;2.33;;;14.70;99.90;;;;;;6158132;23;20165;-76
2021/09/16 04:03:42;;;;;;;3.22;2.92;;;14.70;99.90;;;;;;6157967;23;20658;-75
2021/09/16 04:06:09;;;;;;;5.55;1.73;;;14.70;99.90;;;;;;6156800;23;20663;-75
2021/09/16 04:08:36;;;;;;;4.50;2.05;;;14.70;99.90;;;;;;6158223;23;20644;-76
2021/09/16 04:11:04;;;;;;;6.68;2.30;;;14.80;99.90;;;;;;6157733;23;20162;-73
2021/09/16 04:13:32;;;;;;;10.05;2.95;;;14.70;99.90;;;;;;6158177;23;20173;-75
2021/09/16 04:16:00;;;;;;;3.95;1.83;;;14.80;99.90;;;;;;6157493;23;20157;-75
2021/09/16 04:18:27;;;;;;;2.80;1.92;;;14.70;99.90;;;;;;6157321;23;20492;-72
2021/09/16 04:20:54;;;;;;;6.97;2.60;;;14.70;99.90;;;;;;6159574;23;20165;-75
2021/09/16 04:23:22;;;;;;;4.00;3.08;;;14.70;99.90;;;;;;6157709;23;20524;-73
2021/09/16 04:25:49;;;;;;;5.70;3.00;;;14.70;99.90;;;;;;6156320;23;20493;-77
2021/09/16 04:28:16;;;;;;;4.75;2.40;;;14.80;99.90;;;;;;6157675;23;20723;-72
2021/09/16 04:30:45;;;;;;;8.52;2.28;;;14.90;99.90;;;;;;6160272;23;20161;-72
2021/09/16 04:33:12;;;;;;;5.50;2.67;;;14.90;99.90;;;;;;6159112;23;20207;-72
2021/09/16 04:35:40;;;;;;;5.68;2.42;;;14.90;99.90;;;;;;6157512;23;20589;-76
2021/09/16 04:38:07;;;;;;;4.55;2.25;;;15.00;99.90;;;;;;6157693;23;20168;-75
2021/09/16 04:40:36;;;;;;;6.18;1.95;;;15.00;99.90;;;;;;6157530;23;20161;-72
2021/09/16 04:43:03;;;;;;;7.00;2.35;;;15.10;99.90;;;;;;6156789;23;20686;-74
2021/09/16 04:45:30;;;;;;;3.35;2.13;;;15.10;99.90;;;;;;6156678;23;20192;-74
2021/09/16 04:47:59;;;;;;;6.57;2.75;;;15.10;99.90;;;;;;6157711;23;20554;-73
2021/09/16 04:50:26;;;;;;;3.95;2.50;;;15.10;99.90;;;;;;6157143;23;20604;-74
2021/09/16 04:52:53;;;;;;;6.15;2.58;;;15.20;99.90;;;;;;6157593;23;20197;-75
2021/09/16 04:55:21;;;;;;;4.22;3.38;;;15.20;99.90;;;;;;6157085;23;20176;-74
2021/09/16 04:57:49;;;;;;;6.03;3.30;;;15.20;99.90;;;;;;6157956;23;20236;-74
2021/09/16 05:00:17;;;;;;;7.07;2.80;;;15.40;99.90;;;;;;6159609;23;20200;-74
2021/09/16 05:02:44;;;;;;;7.47;2.67;;;15.40;99.90;;;;;;6158236;23;20276;-72
2021/09/16 05:05:13;;;;;;;4.00;2.75;;;15.40;99.90;;;;;;6156599;23;20248;-76
2021/09/16 05:07:40;;;;;;;8.18;3.15;;;15.40;99.90;;;;;;6156957;23;20165;-73
2021/09/16 05:10:09;;;;;;;4.68;2.58;;;15.40;99.90;;;;;;6156321;23;20166;-72
2021/09/16 05:12:37;;;;;;;5.45;3.17;;;15.40;99.90;;;;;;6178263;23;20212;-83
2021/09/16 05:15:04;;;;;;;5.97;3.50;;;15.40;99.90;;;;;;6210898;23;20208;-81
2021/09/16 05:17:31;;;;;;;5.05;3.00;;;15.40;99.90;;;;;;6210944;23;20173;-78
2021/09/16 05:19:58;;;;;;;15.18;3.40;;;15.40;99.90;;;;;;6210105;23;20220;-79
2021/09/16 05:22:27;;;;;;;4.20;3.20;;;15.40;99.90;;;;;;6208869;23;20233;-79
2021/09/16 05:24:54;;;;;;;5.85;3.63;;;15.40;99.90;;;;;;6207706;23;20253;-83
2021/09/16 05:27:21;;;;;;;6.43;3.50;;;15.40;99.90;;;;;;6204152;23;20198;-81
2021/09/16 05:29:49;;;;;;;9.15;4.72;;;15.40;99.90;;;;;;6200524;23;20207;-81
2021/09/16 05:32:16;;;;;;;10.70;3.80;;;15.40;99.90;;;;;;6199511;23;20260;-82
2021/09/16 05:34:44;;;;;;;7.93;4.43;;;15.40;99.90;;;;;;6200230;23;20194;-80
2021/09/16 05:37:11;;;;;;;5.80;4.07;;;15.40;99.90;;;;;;6201633;23;20207;-82
2021/09/16 05:39:39;;;;;;;5.13;3.50;;;15.40;99.90;;;;;;6200142;23;20176;-83
2021/09/16 05:42:07;;;;;;;6.70;4.43;;;15.40;99.90;;;;;;6200883;23;20210;-83
2021/09/16 05:44:34;;;;;;;7.93;4.32;;;15.50;99.90;;;;;;6200366;23;20183;-81
2021/09/16 05:47:01;;;;;;;7.13;5.20;;;15.50;99.90;;;;;;6199450;23;20192;-82
2021/09/16 05:49:28;;;;;;;9.15;4.78;;;15.50;99.90;;;;;;6199072;23;20239;-82
2021/09/16 05:51:55;;;;;;;6.43;4.47;;;15.50;99.90;;;;;;6198804;23;20188;-82
2021/09/16 05:54:22;;;;;;;5.22;3.75;;;15.50;99.90;;;;;;6201221;23;20185;-81
2021/09/16 05:56:50;;;;;;;6.47;4.85;;;15.50;99.90;;;;;;6199980;23;20228;-81
2021/09/16 05:59:18;;;;;;;7.72;4.32;;;15.50;99.90;;;;;;6200537;23;20236;-81
2021/09/16 06:01:45;;;;;;;9.23;4.90;;;15.50;99.90;;;;;;6198739;23;20200;-82
2021/09/16 06:04:24;;;;;;;12.88;4.85;;;15.60;99.90;;;;;;6198755;23;20237;-83
2021/09/16 06:06:52;;;;;;;7.28;5.18;;;15.60;99.90;;;;;;6207560;23;20252;-82
2021/09/16 06:09:24;;;;;;;8.05;4.88;;;15.60;99.90;;;;;;6205470;23;20157;-83
2021/09/16 06:11:52;;;;;;;9.45;5.78;;;15.60;99.90;;;;;;6197059;23;20267;-82
2021/09/16 06:14:19;;;;;;;10.82;5.57;;;15.70;99.90;;;;;;6196075;23;20160;-84
2021/09/16 06:16:46;;;;;;;5.57;5.03;;;15.70;99.90;;;;;;6199762;23;20232;-83
2021/09/16 06:19:14;;;;;;;9.82;5.82;;;15.70;99.90;;;;;;6197633;23;20525;-85
2021/09/16 06:21:46;;;;;;;8.35;5.82;;;15.80;99.90;;;;;;6199061;23;20200;-86
2021/09/16 06:24:13;;;;;;;7.72;6.65;;;15.80;99.90;;;;;;6198991;23;20161;-83
2021/09/16 06:26:46;;;;;;;7.80;6.85;;;15.80;99.90;;;;;;6196597;23;20204;-83
2021/09/16 06:29:17;;;;;;;7.45;6.75;;;15.80;99.90;;;;;;6198507;23;20165;-83
2021/09/16 06:31:47;;;;;;;8.82;6.45;;;15.80;99.90;;;;;;6196948;23;20201;-82
2021/09/16 06:34:18;;;;;;;10.73;8.02;;;15.80;99.90;;;;;;6198922;23;20224;-81
2021/09/16 06:36:48;;;;;;;9.52;6.82;;;15.90;99.90;;;;;;6200413;23;20160;-83
2021/09/16 06:42:09;;;;;;;8.48;6.75;;;15.90;99.90;;;;;;6125690;23;20493;-70
2021/09/16 06:44:38;;;;;;;9.48;8.43;;;15.90;99.90;;;;;;6125704;23;20617;-72
2021/09/16 06:47:06;;;;;;;11.32;7.95;;;16.00;99.90;;;;;;6124135;23;20506;-72
2021/09/16 06:49:40;;;;;;;10.10;7.45;;;16.00;99.90;;;;;;6124952;23;20262;-73
2021/09/16 06:52:08;;;;;;;8.10;7.30;;;16.10;99.90;;;;;;6125162;23;20221;-71
2021/09/16 06:54:36;;;;;;;10.77;7.90;;;16.10;99.90;;;;;;6125272;23;20171;-72
2021/09/16 06:57:04;;;;;;;14.23;9.55;;;16.10;99.90;;;;;;6124523;23;20557;-72
2021/09/16 06:59:31;;;;;;;11.13;9.35;;;16.20;99.90;;;;;;6125472;23;20162;-72
2021/09/16 07:01:59;;;;;;;10.48;9.10;;;16.20;99.90;;;;;;6124574;23;20203;-74
2021/09/16 07:04:29;;;;;;;16.60;7.47;;;16.10;99.90;;;;;;6125220;23;20174;-70
2021/09/16 07:06:58;;;;;;;16.48;8.82;;;16.20;99.90;;;;;;6124432;23;20202;-71
2021/09/16 07:09:28;;;;;;;9.80;8.60;;;16.20;99.90;;;;;;6123311;23;20163;-71
2021/09/16 07:11:55;;;;;;;11.52;7.68;;;16.30;99.90;;;;;;6120239;23;20229;-69
2021/09/16 07:14:29;;;;;;;11.02;8.70;;;16.30;99.90;;;;;;6124127;23;20169;-74
2021/09/16 07:17:01;;;;;;;17.77;8.50;;;16.40;99.90;;;;;;6125139;23;20158;-72
2021/09/16 07:19:35;;;;;;;8.57;7.68;;;16.40;99.90;;;;;;6124392;23;20166;-73
2021/09/16 07:22:10;;;;;;;11.55;8.07;;;16.60;99.90;;;;;;6126407;23;20235;-74
2021/09/16 07:24:39;;;;;;;12.25;8.20;;;16.80;99.90;;;;;;6102402;23;20180;-75
2021/09/16 07:27:08;;;;;;;8.93;7.50;;;17.00;99.90;;;;;;6128195;23;20189;-72
2021/09/16 07:29:36;;;;;;;14.03;7.97;;;17.20;99.90;;;;;;6127527;23;20401;-68
2021/09/16 07:32:23;;;;;;;8.27;7.40;;;17.30;99.90;;;;;;6125039;23;20464;-71
2021/09/16 07:34:59;;;;;;;9.70;7.70;;;17.50;99.90;;;;;;6076741;23;20416;-71
2021/09/16 07:43:24;;;;;;;8.03;6.33;;;18.90;99.90;;;;;;6152704;23;20488;-75
2021/09/16 07:45:51;;;;;;;9.43;7.20;;;19.30;99.90;;;;;;6156203;23;20436;-74
2021/09/16 07:48:21;;;;;;;9.83;5.60;;;19.40;99.90;;;;;;6157118;23;20401;-73
2021/09/16 07:50:50;;;;;;;15.40;8.30;;;19.60;99.90;;;;;;6156524;23;20397;-72
2021/09/16 07:53:18;;;;;;;9.90;5.53;;;20.50;99.90;;;;;;6157069;23;20428;-74
2021/09/16 07:55:47;;;;;;;6.50;4.50;;;20.70;99.90;;;;;;6156096;23;20403;-73
2021/09/16 07:58:14;;;;;;;7.20;4.80;;;20.70;99.90;;;;;;6157074;23;20394;-72
2021/09/16 08:00:41;;;;;;;6.00;4.57;;;20.50;99.90;;;;;;6156536;23;20381;-73
2021/09/16 08:03:09;;;;;;;5.20;4.13;;;20.40;99.90;;;;;;6157231;23;20441;-75
2021/09/16 08:05:37;;;;;;;5.63;4.30;;;20.40;99.90;;;;;;6155727;23;20397;-73
2021/09/16 08:08:05;;;;;;;6.90;3.67;;;20.20;99.90;;;;;;6157403;23;20492;-75
2021/09/16 08:10:32;;;;;;;8.33;4.50;;;20.20;99.90;;;;;;6156654;23;20406;-75
2021/09/16 08:12:59;;;;;;;7.63;4.30;;;20.30;99.90;;;;;;6155856;23;20755;-73
2021/09/16 08:15:26;;;;;;;5.10;4.57;;;20.40;99.90;;;;;;6156179;23;20719;-74
2021/09/16 08:17:53;;;;;;;4.83;3.40;;;20.20;99.90;;;;;;6156492;23;20389;-73
2021/09/16 08:20:21;;;;;;;7.20;3.90;;;20.20;99.90;;;;;;6157045;23;20773;-74
2021/09/16 08:22:49;;;;;;;5.80;3.83;;;20.40;99.90;;;;;;6156054;23;20441;-73
2021/09/16 08:25:17;;;;;;;4.73;2.97;;;20.20;99.90;;;;;;6156280;23;20675;-74
2021/09/16 08:27:45;;;;;;;6.20;4.50;;;20.00;99.90;;;;;;6157068;23;20438;-76
2021/09/16 08:30:13;;;;;;;7.43;4.20;;;20.20;99.90;;;;;;6156917;23;20389;-75
2021/09/16 08:32:40;;;;;;;7.23;4.03;;;20.30;99.90;;;;;;6156716;23;20429;-76
2021/09/16 08:35:09;;;;;;;8.03;4.03;;;20.30;99.90;;;;;;6155689;23;20389;-75
2021/09/16 08:37:36;;;;;;;11.90;3.90;;;20.30;99.90;;;;;;6157138;23;20388;-74
2021/09/16 08:40:06;;;;;;;5.20;4.17;;;20.10;99.90;;;;;;6156761;23;20425;-77
2021/09/16 08:42:37;;;;;;;6.03;4.50;;;20.10;99.90;;;;;;6156508;23;20447;-73
2021/09/16 08:45:06;;;;;;;8.70;3.40;;;20.10;99.90;;;;;;6156947;23;20833;-74
2021/09/16 08:47:36;;;;;;;5.63;3.90;;;20.10;99.90;;;;;;6157359;23;20428;-76
2021/09/16 08:50:05;;;;;;;6.77;4.00;;;20.30;99.90;;;;;;6156777;23;20428;-73
2021/09/16 08:52:37;;;;;;;5.33;4.10;;;20.50;99.90;;;;;;6156207;23;20527;-75
2021/09/16 08:55:07;;;;;;;5.77;3.53;;;20.50;99.90;;;;;;6156170;23;20388;-73
2021/09/16 08:57:37;;;;;;;7.80;3.43;;;20.60;99.90;;;;;;6157699;23;20406;-73
2021/09/16 09:00:06;;;;;;;9.03;4.00;;;20.70;99.90;;;;;;6156107;23;20391;-75
2021/09/16 09:02:34;;;;;;;8.93;3.70;;;20.90;99.90;;;;;;6156370;23;20512;-77
2021/09/16 09:05:03;;;;;;;6.40;3.57;;;21.00;99.90;;;;;;6156514;23;20407;-75
2021/09/16 09:07:38;;;;;;;13.63;4.67;;;21.00;99.90;;;;;;6157233;23;20451;-77
2021/09/16 09:10:08;;;;;;;4.63;3.03;;;21.20;99.90;;;;;;6156636;23;20399;-74
2021/09/16 09:12:37;;;;;;;9.30;3.30;;;21.30;99.90;;;;;;6155172;23;20462;-76
2021/09/16 09:15:07;;;;;;;5.63;3.20;;;21.30;99.90;;;;;;6156413;23;20401;-73
2021/09/16 09:17:34;;;;;;;5.50;2.80;;;21.30;99.90;;;;;;6155985;23;20858;-77
2021/09/16 09:20:08;;;;;;;6.70;3.10;;;21.30;99.90;;;;;;6156265;23;20426;-76
2021/09/16 09:22:37;;;;;;;10.30;3.20;;;21.20;99.90;;;;;;6153416;23;20432;-74
2021/09/16 09:25:10;;;;;;;5.47;3.17;;;21.30;99.90;;;;;;6155593;23;20399;-75
2021/09/16 09:27:41;;;;;;;6.50;2.67;;;21.30;99.90;;;;;;6155865;23;20430;-75
2021/09/16 09:30:12;;;;;;;5.13;2.80;;;21.40;99.90;;;;;;6156186;23;20385;-73
2021/09/16 09:33:02;;;;;;;8.47;2.97;;;21.60;99.90;;;;;;6154552;23;20431;-73
2021/09/16 09:35:35;;;;;;;6.60;2.60;;;21.70;99.90;;;;;;6150762;23;20454;-72
2021/09/16 09:38:14;;;;;;;4.50;3.03;;;21.70;99.90;;;;;;6155741;23;20399;-72
2021/09/16 09:40:44;;;;;;;5.20;2.63;;;21.70;99.90;;;;;;6156338;23;20398;-75
2021/09/16 09:43:21;;;;;;;3.77;2.47;;;21.60;99.90;;;;;;6155885;23;20435;-73
2021/09/16 09:46:08;;;;;;;5.80;2.90;;;21.70;99.90;;;;;;6155944;23;20420;-71
2021/09/16 09:48:38;;;;;;;4.20;2.80;;;21.70;99.90;;;;;;6156168;23;20750;-75
2021/09/16 09:51:07;;;;;;;5.03;2.77;;;21.40;99.90;;;;;;6155925;23;20442;-76
2021/09/16 09:53:38;;;;;;;7.93;3.17;;;21.40;99.90;;;;;;6156708;23;20403;-74
2021/09/16 09:56:15;;;;;;;4.90;2.40;;;21.20;99.90;;;;;;6154774;23;20392;-75
2021/09/16 09:58:42;;;;;;;6.60;3.13;;;21.40;99.90;;;;;;6157181;23;20392;-74
2021/09/16 10:01:31;;;;;;;5.30;2.83;;;21.30;99.90;;;;;;6156641;23;20424;-77
2021/09/16 10:03:58;;;;;;;5.73;2.87;;;21.30;99.90;;;;;;6156802;23;20400;-73
2021/09/16 10:06:35;;;;;;;7.20;3.10;;;21.10;99.90;;;;;;6154594;23;20404;-74
2021/09/16 10:09:10;;;;;;;4.47;2.50;;;21.00;99.90;;;;;;6156462;23;20383;-75
2021/09/16 10:11:40;;;;;;;6.47;4.03;;;20.90;99.90;;;;;;6155553;23;20946;-75
2021/09/16 10:14:07;;;;;;;15.90;5.40;;;20.70;99.90;;;;;;6155825;23;20847;-74
2021/09/16 10:16:35;;;;;;;6.23;3.40;;;20.60;99.90;;;;;;6155341;23;20430;-76
2021/09/16 10:19:02;;;;;;;4.60;2.83;;;20.70;99.90;;;;;;6155868;23;20485;-75
2021/09/16 10:21:31;;;;;;;11.37;3.87;;;21.00;99.90;;;;;;6155724;23;20425;-75
2021/09/16 10:24:00;;;;;;;3.90;2.40;;;21.30;99.90;;;;;;6156146;23;20418;-74
2021/09/16 10:26:39;;;;;;;7.60;2.77;;;21.50;99.90;;;;;;6155385;23;20393;-75
2021/09/16 10:29:28;;;;;;;5.27;2.33;;;21.70;99.90;;;;;;6156172;23;20396;-73
2021/09/16 10:32:38;;;;;;;3.70;2.37;;;21.80;99.90;;;;;;6154976;23;20433;-75
2021/09/16 10:35:20;;;;;;;5.17;2.50;;;21.70;99.90;;;;;;6155779;23;20408;-78
2021/09/16 10:37:48;;;;;;;6.93;3.30;;;21.40;99.90;;;;;;6155470;23;20391;-75
2021/09/16 10:40:35;;;;;;;6.37;2.80;;;21.30;99.90;;;;;;6155917;23;20475;-73
2021/09/16 10:43:04;;;;;;;9.50;3.37;;;21.50;99.90;;;;;;6154650;23;20481;-76
2021/09/16 10:45:35;;;;;;;4.40;3.23;;;21.70;99.90;;;;;;6155529;23;20392;-77
2021/09/16 10:48:30;;;;;;;8.53;2.30;;;22.20;99.90;;;;;;6155267;23;20516;-74
2021/09/16 10:51:07;;;;;;;4.07;2.20;;;22.80;99.90;;;;;;6155269;23;20447;-73
2021/09/16 10:53:39;;;;;;;8.90;2.60;;;23.10;99.90;;;;;;6153938;23;20910;-76
2021/09/16 10:56:39;;;;;;;8.10;2.50;;;23.20;99.90;;;;;;6154154;23;20440;-75
2021/09/16 10:59:08;;;;;;;5.33;2.93;;;23.00;99.90;;;;;;6158196;23;20384;-75
2021/09/16 11:02:00;;;;;;;6.40;2.97;;;22.60;99.90;;;;;;6158404;23;20931;-74
2021/09/16 11:05:06;;;;;;;5.43;2.30;;;22.30;99.90;;;;;;6159410;23;20404;-76
2021/09/16 11:07:55;;;;;;;5.30;2.90;;;22.00;99.90;;;;;;6158061;23;20459;-75
2021/09/16 11:11:01;;;;;;;6.33;2.17;;;21.80;99.90;;;;;;6158436;23;20395;-76
2021/09/16 11:13:41;;;;;;;7.70;2.27;;;21.70;99.90;;;;;;6153439;23;20474;-80
2021/09/16 11:16:31;;;;;;;6.20;3.03;;;21.40;99.90;;;;;;6170466;23;20487;-81
2021/09/16 11:19:07;;;;;;;4.10;2.37;;;21.10;99.90;;;;;;6168184;23;20423;-79
2021/09/16 11:21:36;;;;;;;6.97;2.87;;;21.20;99.90;;;;;;6171503;23;20462;-81
2021/09/16 11:24:10;;;;;;;8.07;5.40;;;21.10;99.90;;;;;;6175043;23;20488;-81
2021/09/16 11:26:37;;;;;;;5.83;3.33;;;20.90;99.90;;;;;;6174567;23;20414;-80
2021/09/16 11:29:09;;;;;;;66.67;28.13;;;20.90;99.90;;;;;;6175781;23;20449;-82
2021/09/16 11:31:36;;;;;;;5.10;2.67;;;20.90;99.90;;;;;;6180331;23;20403;-82
2021/09/16 11:34:15;;;;;;;11.77;3.47;;;21.40;99.90;;;;;;6181766;23;20458;-81
2021/09/16 11:37:07;;;;;;;14.70;3.10;;;21.80;99.90;;;;;;6183624;23;20381;-81
2021/09/16 11:39:35;;;;;;;5.27;2.40;;;22.30;99.90;;;;;;6183538;23;20385;-80
2021/09/16 11:42:20;;;;;;;6.40;2.67;;;22.60;99.90;;;;;;6183416;23;20473;-80
2021/09/16 11:45:02;;;;;;;7.10;2.57;;;23.30;99.90;;;;;;6180949;23;20439;-79
2021/09/16 11:47:30;;;;;;;5.40;2.50;;;23.60;99.90;;;;;;6170557;23;20420;-82
2021/09/16 11:49:58;;;;;;;4.93;2.50;;;23.30;99.90;;;;;;6168460;23;20891;-79
2021/09/16 11:52:26;;;;;;;3.20;2.10;;;23.30;99.90;;;;;;6170278;23;20416;-81
2021/09/16 11:55:05;;;;;;;4.70;2.50;;;23.10;99.90;;;;;;6170013;23;20499;-79
2021/09/16 11:57:32;;;;;;;4.53;2.10;;;23.30;99.90;;;;;;6170339;23;20446;-81
2021/09/16 12:00:23;;;;;;;5.70;2.30;;;23.50;99.90;;;;;;6173719;23;20401;-80
2021/09/16 12:02:50;;;;;;;6.23;2.37;;;23.60;99.90;;;;;;6175403;23;20437;-80
2021/09/16 12:05:44;;;;;;;7.40;2.50;;;23.50;99.90;;;;;;6174828;23;20424;-81
2021/09/16 12:08:18;;;;;;;6.87;3.10;;;23.10;99.90;;;;;;6175800;23;20385;-81
2021/09/16 12:10:52;;;;;;;3.00;2.03;;;22.60;99.90;;;;;;6181688;23;20377;-79
2021/09/16 12:13:21;;;;;;;3.67;2.70;;;22.40;99.90;;;;;;6196933;23;20442;-80
2021/09/16 12:15:51;;;;;;;7.93;2.10;;;22.30;99.90;;;;;;6208634;23;20409;-81
2021/09/16 12:18:22;;;;;;;7.67;2.63;;;22.10;99.90;;;;;;6210633;23;20753;-80
2021/09/16 12:20:49;;;;;;;5.53;2.60;;;21.90;99.90;;;;;;6211417;23;20380;-79
2021/09/16 12:23:21;;;;;;;9.43;3.10;;;21.70;99.90;;;;;;6212073;23;20453;-80
2021/09/16 12:25:55;;;;;;;4.50;2.80;;;21.30;99.90;;;;;;6211870;23;20552;-79
2021/09/16 12:28:22;;;;;;;3.47;2.03;;;21.20;99.90;;;;;;6210800;23;20394;-79
2021/09/16 12:30:50;;;;;;;2.90;1.90;;;21.10;99.90;;;;;;6211773;23;20441;-80
2021/09/16 12:33:36;;;;;;;2.40;1.30;;;21.30;99.90;;;;;;6211422;23;20509;-80
2021/09/16 12:36:15;;;;;;;3.60;1.53;;;21.40;99.90;;;;;;6211427;23;20407;-79
2021/09/16 12:38:46;;;;;;;2.13;1.30;;;21.60;99.90;;;;;;6210644;23;20494;-80
2021/09/16 12:41:31;;;;;;;1.70;1.20;;;21.60;99.90;;;;;;6201103;23;20434;-81
2021/09/16 12:44:01;;;;;;;5.23;1.83;;;21.60;99.90;;;;;;6199435;23;20422;-80
2021/09/16 12:46:29;;;;;;;4.53;2.00;;;21.50;99.90;;;;;;6199334;23;20407;-81
2021/09/16 12:48:56;;;;;;;3.83;1.73;;;21.30;99.90;;;;;;6198220;23;20809;-80
2021/09/16 12:51:23;;;;;;;4.80;1.93;;;21.20;99.90;;;;;;6199874;23;20409;-79
2021/09/16 12:53:53;;;;;;;2.50;1.57;;;21.10;99.90;;;;;;6198297;23;20435;-80
2021/09/16 12:56:21;;;;;;;1.47;1.37;;;21.10;99.90;;;;;;6198816;23;20810;-81
2021/09/16 12:58:48;;;;;;;3.50;1.77;;;21.10;99.90;;;;;;6196436;23;20470;-80
2021/09/16 13:01:15;;;;;;;4.80;2.17;;;21.00;99.90;;;;;;6197935;23;20858;-81
2021/09/16 13:04:02;;;;;;;6.40;1.70;;;20.90;99.90;;;;;;6197097;23;20482;-79
2021/09/16 13:06:32;;;;;;;5.07;2.50;;;20.90;99.90;;;;;;6196859;23;20777;-80
2021/09/16 13:09:01;;;;;;;4.40;2.00;;;21.00;99.90;;;;;;6197769;23;20371;-81
2021/09/16 13:11:29;;;;;;;4.20;1.87;;;21.30;99.90;;;;;;6199529;23;20788;-80